Time,TemperatureF,DewpointF,PressureIn,WindDirection,WindDirectionDegrees,WindSpeedMPH,WindSpeedGustMPH,Humidity,HourlyPrecipIn,Conditions,Clouds,dailyrainin,SolarRadiationWatts/m^2,SoftwareType,DateUTC
2013-07-10 00:06:00,68.6,68.0,29.61,South,186,0.0,0.0,96,0.00,,,0.00,0,weatherlink.com 1.10,2013-07-10 04:06:00,
2013-07-10 00:21:00,68.6,68.0,29.61,South,186,0.0,0.0,96,0.00,,,0.00,0,weatherlink.com 1.10,2013-07-10 04:21:00,
2013-07-10 00:36:00,68.6,68.0,29.61,South,186,0.0,0.0,97,0.03,,,0.03,0,weatherlink.com 1.10,2013-07-10 04:36:00,
2013-07-10 00:51:00,68.5,68.0,29.61,South,186,0.0,0.0,97,0.03,,,0.03,0,weatherlink.com 1.10,2013-07-10 04:51:00,
2013-07-10 01:06:00,68.4,68.0,29.61,South,186,0.0,1.0,97,0.03,,,0.03,0,weatherlink.com 1.10,2013-07-10 05:06:00,
2013-07-10 01:21:00,68.6,68.0,29.60,South,186,0.0,1.0,97,0.03,,,0.03,0,weatherlink.com 1.10,2013-07-10 05:21:00,
2013-07-10 01:36:00,68.3,68.0,29.61,South,186,0.0,2.0,97,0.00,,,0.03,0,weatherlink.com 1.10,2013-07-10 05:36:00,
2013-07-10 01:51:00,68.0,67.0,29.61,South,186,0.0,2.0,97,0.01,,,0.04,0,weatherlink.com 1.10,2013-07-10 05:51:00,
2013-07-10 02:06:00,67.9,67.0,29.62,SW,236,0.0,1.0,97,0.01,,,0.04,0,weatherlink.com 1.10,2013-07-10 06:06:00,
2013-07-10 02:21:00,67.8,67.0,29.62,SW,236,0.0,0.0,97,0.01,,,0.04,0,weatherlink.com 1.10,2013-07-10 06:21:00,
2013-07-10 02:36:00,67.5,66.0,29.62,SW,236,0.0,0.0,96,0.01,,,0.04,0,weatherlink.com 1.10,2013-07-10 06:36:00,
2013-07-10 02:51:00,67.3,66.0,29.62,SW,236,0.0,0.0,96,0.00,,,0.04,0,weatherlink.com 1.10,2013-07-10 06:51:00,
2013-07-10 03:06:00,67.0,66.0,29.61,SW,236,0.0,1.0,96,0.00,,,0.04,0,weatherlink.com 1.10,2013-07-10 07:06:00,
2013-07-10 03:21:00,66.6,66.0,29.61,SW,236,0.0,0.0,97,0.00,,,0.04,0,weatherlink.com 1.10,2013-07-10 07:21:00,
2013-07-10 03:36:00,66.7,66.0,29.62,ESE,114,0.0,4.0,97,0.00,,,0.04,0,weatherlink.com 1.10,2013-07-10 07:36:00,
2013-07-10 03:51:00,66.8,66.0,29.61,ESE,113,0.0,3.0,96,0.00,,,0.04,0,weatherlink.com 1.10,2013-07-10 07:51:00,
2013-07-10 04:06:00,66.6,65.0,29.62,NNW,337,1.0,4.0,93,0.00,,,0.04,0,weatherlink.com 1.10,2013-07-10 08:06:00,
2013-07-10 04:21:00,65.9,64.0,29.62,East,82,1.0,3.0,93,0.00,,,0.04,0,weatherlink.com 1.10,2013-07-10 08:21:00,
2013-07-10 04:36:00,65.5,63.0,29.63,East,79,0.0,8.0,92,0.00,,,0.04,0,weatherlink.com 1.10,2013-07-10 08:36:00,
2013-07-10 04:51:00,65.0,63.0,29.63,ESE,107,0.0,3.0,92,0.00,,,0.04,0,weatherlink.com 1.10,2013-07-10 08:51:00,
2013-07-10 05:06:00,64.6,62.0,29.64,North,360,2.0,11.0,91,0.00,,,0.04,0,weatherlink.com 1.10,2013-07-10 09:06:00,
2013-07-10 05:21:00,64.4,62.0,29.65,ESE,123,2.0,3.0,91,0.00,,,0.04,0,weatherlink.com 1.10,2013-07-10 09:21:00,
2013-07-10 05:37:00,64.2,61.0,29.65,NW,305,1.0,4.0,89,0.00,,,0.04,0,weatherlink.com 1.10,2013-07-10 09:37:00,
2013-07-10 05:52:00,64.1,61.0,29.66,SE,130,3.0,5.0,88,0.00,,,0.04,0,weatherlink.com 1.10,2013-07-10 09:52:00,
2013-07-10 06:07:00,63.9,60.0,29.68,NE,52,0.0,7.0,88,0.00,,,0.04,0,weatherlink.com 1.10,2013-07-10 10:07:00,
2013-07-10 06:22:00,64.0,60.0,29.68,WSW,250,0.0,4.0,87,0.00,,,0.04,0,weatherlink.com 1.10,2013-07-10 10:22:00,
2013-07-10 06:37:00,63.9,60.0,29.68,East,94,1.0,5.0,87,0.00,,,0.04,5,weatherlink.com 1.10,2013-07-10 10:37:00,
2013-07-10 06:52:00,63.9,60.0,29.69,SE,135,3.0,3.0,87,0.00,,,0.04,7,weatherlink.com 1.10,2013-07-10 10:52:00,
2013-07-10 07:07:00,63.9,59.0,29.70,SW,214,1.0,3.0,85,0.00,,,0.04,12,weatherlink.com 1.10,2013-07-10 11:07:00,
2013-07-10 07:22:00,63.9,59.0,29.70,SE,134,0.0,3.0,85,0.00,,,0.04,26,weatherlink.com 1.10,2013-07-10 11:22:00,
2013-07-10 07:37:00,63.9,59.0,29.70,WSW,239,0.0,3.0,85,0.00,,,0.04,37,weatherlink.com 1.10,2013-07-10 11:37:00,
2013-07-10 07:52:00,64.0,60.0,29.71,WSW,245,0.0,3.0,85,0.00,,,0.04,44,weatherlink.com 1.10,2013-07-10 11:52:00,
2013-07-10 08:07:00,63.9,60.0,29.71,North,349,0.0,4.0,86,0.00,,,0.04,54,weatherlink.com 1.10,2013-07-10 12:07:00,
2013-07-10 08:22:00,64.0,60.0,29.71,North,350,1.0,2.0,85,0.00,,,0.04,56,weatherlink.com 1.10,2013-07-10 12:22:00,
2013-07-10 08:37:00,64.3,60.0,29.72,NNW,331,3.0,5.0,85,0.00,,,0.04,241,weatherlink.com 1.10,2013-07-10 12:37:00,
2013-07-10 08:52:00,65.4,60.0,29.72,NW,306,2.0,4.0,82,0.00,,,0.04,141,weatherlink.com 1.10,2013-07-10 12:52:00,
2013-07-10 09:07:00,65.8,60.0,29.72,SE,126,1.0,4.0,82,0.00,,,0.04,457,weatherlink.com 1.10,2013-07-10 13:07:00,
2013-07-10 09:22:00,66.1,60.0,29.73,NW,318,1.0,4.0,80,0.00,,,0.04,169,weatherlink.com 1.10,2013-07-10 13:22:00,
2013-07-10 09:37:00,65.5,60.0,29.73,NW,309,0.0,4.0,82,0.00,,,0.04,120,weatherlink.com 1.10,2013-07-10 13:37:00,
2013-07-10 09:52:00,65.2,60.0,29.75,NW,309,1.0,4.0,82,0.00,,,0.04,130,weatherlink.com 1.10,2013-07-10 13:52:00,
2013-07-10 10:07:00,65.2,60.0,29.75,NW,309,0.0,2.0,83,0.00,,,0.04,178,weatherlink.com 1.10,2013-07-10 14:07:00,
2013-07-10 10:22:00,65.4,60.0,29.75,WNW,303,1.0,5.0,82,0.00,,,0.04,213,weatherlink.com 1.10,2013-07-10 14:22:00,
2013-07-10 10:37:00,65.2,60.0,29.76,NNW,342,2.0,4.0,82,0.00,,,0.04,181,weatherlink.com 1.10,2013-07-10 14:37:00,
2013-07-10 11:07:00,67.0,60.0,29.76,WNW,288,1.0,4.0,79,0.00,,,0.04,726,weatherlink.com 1.10,2013-07-10 15:07:00,
2013-07-10 11:22:00,68.2,60.0,29.76,WNW,289,2.0,4.0,76,0.00,,,0.04,343,weatherlink.com 1.10,2013-07-10 15:22:00,
2013-07-10 11:37:00,68.6,60.0,29.77,NW,313,2.0,5.0,73,0.00,,,0.04,202,weatherlink.com 1.10,2013-07-10 15:37:00,
2013-07-10 11:52:00,68.3,60.0,29.77,NW,311,1.0,3.0,76,0.00,,,0.04,345,weatherlink.com 1.10,2013-07-10 15:52:00,
2013-07-10 12:07:00,68.6,60.0,29.77,NW,321,2.0,5.0,73,0.00,,,0.04,1005,weatherlink.com 1.10,2013-07-10 16:07:00,
2013-07-10 12:22:00,69.9,60.0,29.77,NNW,340,2.0,5.0,71,0.00,,,0.04,214,weatherlink.com 1.10,2013-07-10 16:22:00,
2013-07-10 12:37:00,70.7,60.0,29.77,NW,319,3.0,4.0,70,0.00,,,0.04,461,weatherlink.com 1.10,2013-07-10 16:37:00,
2013-07-10 12:52:00,70.3,60.0,29.78,ENE,57,0.0,3.0,70,0.00,,,0.04,297,weatherlink.com 1.10,2013-07-10 16:52:00,
2013-07-10 13:07:00,70.1,59.0,29.78,NW,317,1.0,6.0,68,0.00,,,0.04,290,weatherlink.com 1.10,2013-07-10 17:07:00,
2013-07-10 13:23:00,70.6,61.0,29.79,NW,306,2.0,4.0,72,0.00,,,0.04,1078,weatherlink.com 1.10,2013-07-10 17:23:00,
2013-07-10 13:38:00,71.4,60.0,29.79,NNW,342,2.0,5.0,68,0.00,,,0.04,1095,weatherlink.com 1.10,2013-07-10 17:38:00,
2013-07-10 13:53:00,70.0,59.0,29.80,NW,309,0.0,4.0,68,0.00,,,0.04,958,weatherlink.com 1.10,2013-07-10 17:53:00,
2013-07-10 14:08:00,70.9,58.0,29.81,NW,311,2.0,5.0,63,0.00,,,0.04,928,weatherlink.com 1.10,2013-07-10 18:08:00,
2013-07-10 14:23:00,70.8,57.0,29.81,NW,322,3.0,8.0,63,0.00,,,0.04,958,weatherlink.com 1.10,2013-07-10 18:23:00,
2013-07-10 14:38:00,71.1,59.0,29.81,NW,311,0.0,4.0,65,0.00,,,0.04,1000,weatherlink.com 1.10,2013-07-10 18:38:00,
2013-07-10 14:53:00,73.4,59.0,29.82,North,360,0.0,4.0,62,0.00,,,0.04,949,weatherlink.com 1.10,2013-07-10 18:53:00,
2013-07-10 15:08:00,73.3,61.0,29.82,NE,41,3.0,4.0,65,0.00,,,0.04,1027,weatherlink.com 1.10,2013-07-10 19:08:00,
2013-07-10 15:23:00,72.7,61.0,29.82,NW,321,0.0,5.0,66,0.00,,,0.04,199,weatherlink.com 1.10,2013-07-10 19:23:00,
2013-07-10 15:38:00,71.0,60.0,29.82,NW,321,0.0,3.0,68,0.00,,,0.04,142,weatherlink.com 1.10,2013-07-10 19:38:00,
2013-07-10 15:53:00,71.1,56.0,29.82,NW,321,1.0,7.0,60,0.00,,,0.04,227,weatherlink.com 1.10,2013-07-10 19:53:00,
2013-07-10 16:08:00,71.1,56.0,29.82,NW,313,0.0,5.0,59,0.00,,,0.04,320,weatherlink.com 1.10,2013-07-10 20:08:00,
2013-07-10 16:23:00,71.6,57.0,29.81,NW,323,0.0,4.0,60,0.00,,,0.04,339,weatherlink.com 1.10,2013-07-10 20:23:00,
2013-07-10 16:38:00,72.0,56.0,29.82,NW,321,2.0,5.0,58,0.00,,,0.04,563,weatherlink.com 1.10,2013-07-10 20:38:00,
2013-07-10 16:53:00,72.4,58.0,29.82,NNW,328,3.0,4.0,60,0.00,,,0.04,178,weatherlink.com 1.10,2013-07-10 20:53:00,
2013-07-10 17:08:00,70.5,56.0,29.82,NW,315,0.0,4.0,60,0.00,,,0.04,223,weatherlink.com 1.10,2013-07-10 21:08:00,
2013-07-10 17:23:00,72.0,55.0,29.82,NW,320,2.0,5.0,55,0.00,,,0.04,149,weatherlink.com 1.10,2013-07-10 21:23:00,
2013-07-10 17:38:00,71.1,55.0,29.82,NW,314,2.0,7.0,57,0.00,,,0.04,141,weatherlink.com 1.10,2013-07-10 21:38:00,
2013-07-10 17:53:00,70.6,56.0,29.82,NW,321,0.0,3.0,61,0.00,,,0.04,77,weatherlink.com 1.10,2013-07-10 21:53:00,
2013-07-10 18:08:00,71.1,57.0,29.82,NE,38,1.0,3.0,61,0.00,,,0.04,67,weatherlink.com 1.10,2013-07-10 22:08:00,
2013-07-10 18:23:00,71.3,56.0,29.82,NW,311,3.0,4.0,59,0.00,,,0.04,65,weatherlink.com 1.10,2013-07-10 22:23:00,
2013-07-10 18:38:00,71.2,56.0,29.82,NW,317,2.0,3.0,59,0.00,,,0.04,67,weatherlink.com 1.10,2013-07-10 22:38:00,
2013-07-10 18:53:00,71.1,55.0,29.82,West,281,2.0,4.0,57,0.00,,,0.04,39,weatherlink.com 1.10,2013-07-10 22:53:00,
2013-07-10 19:08:00,71.1,55.0,29.82,NNW,329,0.0,3.0,58,0.00,,,0.04,33,weatherlink.com 1.10,2013-07-10 23:08:00,
2013-07-10 19:23:00,71.0,56.0,29.83,NNW,329,0.0,3.0,60,0.00,,,0.04,32,weatherlink.com 1.10,2013-07-10 23:23:00,
2013-07-10 19:38:00,70.8,57.0,29.83,NNW,340,0.0,2.0,61,0.00,,,0.04,28,weatherlink.com 1.10,2013-07-10 23:38:00,
2013-07-10 19:53:00,70.3,57.0,29.83,NNW,340,0.0,2.0,64,0.00,,,0.04,26,weatherlink.com 1.10,2013-07-10 23:53:00,
2013-07-10 20:08:00,69.8,59.0,29.84,NNW,340,0.0,1.0,68,0.00,,,0.04,25,weatherlink.com 1.10,2013-07-11 00:08:00,
2013-07-10 20:23:00,69.3,57.0,29.84,NNW,340,0.0,0.0,66,0.00,,,0.04,21,weatherlink.com 1.10,2013-07-11 00:23:00,
2013-07-10 20:38:00,68.7,58.0,29.84,NNW,340,0.0,1.0,69,0.00,,,0.04,19,weatherlink.com 1.10,2013-07-11 00:38:00,
2013-07-10 20:53:00,67.9,58.0,29.84,NNW,340,0.0,0.0,71,0.00,,,0.04,16,weatherlink.com 1.10,2013-07-11 00:53:00,
2013-07-10 21:08:00,66.7,59.0,29.84,NNW,340,0.0,0.0,76,0.00,,,0.04,12,weatherlink.com 1.10,2013-07-11 01:08:00,
2013-07-10 21:23:00,65.8,58.0,29.84,NNW,340,0.0,0.0,76,0.00,,,0.04,7,weatherlink.com 1.10,2013-07-11 01:23:00,
2013-07-10 21:38:00,64.9,58.0,29.84,NNW,340,0.0,0.0,77,0.00,,,0.04,0,weatherlink.com 1.10,2013-07-11 01:38:00,
2013-07-10 21:53:00,64.3,57.0,29.85,NNW,340,0.0,0.0,77,0.00,,,0.04,0,weatherlink.com 1.10,2013-07-11 01:53:00,
2013-07-10 22:08:00,63.7,57.0,29.85,NNW,340,0.0,1.0,78,0.00,,,0.04,0,weatherlink.com 1.10,2013-07-11 02:08:00,
2013-07-10 22:23:00,63.3,57.0,29.85,NNW,340,0.0,0.0,80,0.00,,,0.04,0,weatherlink.com 1.10,2013-07-11 02:23:00,
2013-07-10 22:38:00,63.2,57.0,29.85,NNW,340,0.0,0.0,80,0.00,,,0.04,0,weatherlink.com 1.10,2013-07-11 02:38:00,
2013-07-10 22:53:00,63.0,56.0,29.86,ENE,65,0.0,3.0,79,0.00,,,0.04,0,weatherlink.com 1.10,2013-07-11 02:53:00,
2013-07-10 23:08:00,63.2,56.0,29.86,ENE,65,0.0,2.0,77,0.00,,,0.04,0,weatherlink.com 1.10,2013-07-11 03:08:00,
2013-07-10 23:23:00,63.6,56.0,29.86,ENE,65,0.0,1.0,76,0.00,,,0.04,0,weatherlink.com 1.10,2013-07-11 03:23:00,
2013-07-10 23:38:00,64.2,56.0,29.86,ENE,72,0.0,3.0,74,0.00,,,0.04,0,weatherlink.com 1.10,2013-07-11 03:38:00,
2013-07-10 23:53:00,64.7,56.0,29.86,ENE,72,0.0,1.0,73,0.00,,,0.04,0,weatherlink.com 1.10,2013-07-11 03:53:00,